x

Santa Maria - 21nm Nw Of Point Arguello, Ca (46011) Wave Buoy

7:50pm - Fri 29th Aug 2014 All times are PDT. -7 hours from GMT.

  • Sig Wave height 4.6ft
  • Swell Direction
  • Peak Period 11s
  • Average Period 5s
  • Wind
    18mph, 22mph gusts
  • Sea Temp 64°f
  • Air Temp 62°f
  • Sea Pressure 1012.1mb
  • Santa Maria - 21nm Nw Of Point Arguello, Ca
  • Santa Maria - 21nm Nw Of Point Arguello, Ca

More Historic Weather Station data

Upgrade to MSW Pro to gain access to the past 30 days of data for over 8000 Wavebouys and Weather Stations around the globe.

Join Pro

Comparision Forecast

View Surf forecast
   
Fri 08/29 7:50pm 4.5ft 11s 5s 18 22 mph 1012.1mb 64f 62f
6:50pm 5ft 11s 5s 18 22 mph 1012.1mb 64f 62f
5:50pm 5ft 10s 5s 20 27 mph 1012.1mb 64f 63f
4:50pm 5ft 11s 5s 20 25 mph 1012.4mb 64f 63f
3:50pm 5ft 11s 5s 20 25 mph 1012.5mb 64f 63f
2:50pm 4.5ft 10s 5s 20 25 mph 1012.6mb 64f 62f
1:50pm 5ft 10s 5s 20 25 mph 1013mb 64f 62f
12:50pm 5.5ft 10s 6s 20 25 mph 1013.2mb 64f 62f
11:50am 5ft 11s 6s 18 22 mph 1013.5mb 64f 62f
10:50am 5ft 11s 6s 13 18 mph 1014.1mb 64f 61f
9:50am 4.5ft 11s 6s 13 18 mph 1014.2mb 64f 61f
8:50am 5ft 11s 6s 13 16 mph 1014mb 64f 61f
7:50am 4.5ft 11s 6s 16 20 mph 1014mb 64f 62f
6:50am 4.5ft 11s 5s 18 22 mph 1013.9mb 64f 61f
5:50am 4.5ft 11s 6s 18 22 mph 1013.5mb 64f 61f
4:50am 4.5ft 11s 6s 18 20 mph 1013.4mb 64f 62f
3:50am 4.5ft 12s 6s 16 20 mph 1013.6mb 64f 62f
2:50am 5ft 11s 6s 16 18 mph 1013.8mb 64f 61f
1:50am 5ft 11s 7s 13 16 mph 1014.2mb 64f 62f
12:50am 5ft 11s 7s 16 20 mph 1014.8mb 64f 62f
Thu 08/28 11:50pm 5.5ft 12s 6s 13 18 mph 1015.1mb 64f 62f
10:50pm 6ft 12s 7s 16 20 mph 1015.7mb 64f 62f
9:50pm 7ft 12s 8s 18 22 mph 1015.7mb 64f 62f
8:50pm 6ft 11s 7s 18 22 mph 1015.4mb 64f 62f
7:50pm 6ft 12s 7s 16 20 mph 1015.1mb 64f 62f
6:50pm 6ft 12s 7s 16 20 mph 1014.9mb 64f 63f
5:50pm 6.5ft 12s 8s 16 18 mph 1015.2mb 65f 63f
4:50pm 6ft 12s 8s 16 18 mph 1015.7mb 65f 63f
3:50pm 5.5ft 13s 8s 13 18 mph 1016.2mb 65f 63f
2:50pm 5.5ft 12s 8s 16 18 mph 1016.7mb 64f 63f
1:50pm 5.5ft 13s 8s 11 16 mph 1017.3mb 64f 63f
12:50pm 5.5ft 12s 9s 13 16 mph 1017.5mb 64f 63f
11:50am 6ft 12s 9s 11 16 mph 1018mb 64f 63f
10:50am 7ft 13s 9s 11 16 mph 1018.3mb 64f 63f
9:50am 7ft 13s 9s 11 13 mph 1018.3mb 64f 62f
8:50am 8.5ft 13s 11s 11 16 mph 1018.1mb 63f 62f
7:50am 8ft 13s 10s 9 13 mph 1017.9mb 63f 62f
6:50am 6.5ft 12s 9s 11 13 mph 1017.7mb 63f 62f
5:50am  -   -   -  9 13 mph 1017.6mb 63f 62f
4:50am 7ft 13s 10s 11 13 mph 1017.4mb 63f 62f
3:50am 6ft 13s 9s 7 11 mph 1017.7mb 64f 62f
2:50am 7ft 13s 10s 9 13 mph 1017.9mb 64f 62f
1:50am 7ft 13s 10s 9 11 mph 1018.4mb 64f 63f
12:50am 7ft 13s 10s 9 13 mph 1018.4mb 64f 63f
Wed 08/27 11:50pm 7ft 14s 10s 9 13 mph 1018.4mb 64f 63f
10:50pm 7ft 14s 10s 7 11 mph 1018.4mb 64f 63f
9:50pm 7.5ft 14s 10s 9 13 mph 1018.3mb 64f 63f
8:50pm 7ft 14s 10s 11 16 mph 1017.7mb 65f 64f
7:50pm 7ft 14s 10s 9 13 mph 1017.4mb 65f 64f
6:50pm 6.5ft 15s 10s 11 16 mph 1017.1mb 65f 64f
5:50pm 9.5ft 15s 11s 11 13 mph 1017.1mb 65f 64f
4:50pm 8ft 14s 11s 11 13 mph 1017.3mb 65f 64f
3:50pm 7ft 15s 10s 11 13 mph 1017.4mb 65f 64f
2:50pm 8ft 15s 11s 9 13 mph 1017.8mb 64f 64f
1:50pm 7.5ft 15s 11s 7 11 mph 1018.2mb 64f 64f
12:50pm 7ft 15s 11s 9 11 mph 1018.4mb 64f 64f
11:50am 7ft 15s 10s 4 7 mph 1018.7mb 64f 63f
10:50am 6ft 15s 10s 4 9 mph 1018.7mb 64f 63f
9:50am 5.5ft 15s 10s 4 9 mph 1018.4mb 63f 63f
8:50am 5ft 15s 9s  -  2 mph 1018mb 63f 64f
7:50am 6ft 15s 10s  -  2 mph 1017.7mb 62f 62f
6:50am 6ft 16s 9s  -  mph 1017.3mb 62f 62f
5:50am 7ft 15s 10s  -  mph 1016.9mb 63f 62f
4:50am 6ft 15s 9s  -  2 mph 1016.5mb 63f 62f
3:50am 6ft 16s 9s 2 7 mph 1016.5mb 63f 63f
2:50am 5.5ft 9s 9s 2 7 mph 1016.5mb 64f 63f
1:50am 5.5ft 16s 9s 2 7 mph 1016.4mb 64f 63f
12:50am 6ft 16s 9s 7 11 mph 1016.4mb 64f 63f
Tue 08/26 11:50pm 5ft 14s 8s 7 9 mph 1016.3mb 64f 63f
10:50pm 5ft 9s 7s 9 11 mph 1016.4mb 65f 64f
9:50pm 5ft 16s 7s 9 13 mph 1016mb 65f 63f
8:50pm 5ft 17s 7s 11 13 mph 1015.7mb 65f 64f
7:50pm 4.5ft 13s 6s 13 18 mph 1015.1mb 65f 64f
6:50pm 4.5ft 9s 6s 13 16 mph 1014.8mb 65f 64f
5:50pm 5ft 13s 7s 13 18 mph 1014.8mb 65f 64f
4:50pm 5ft 14s 8s 11 13 mph 1015mb 65f 64f
3:50pm 5ft 14s 8s 11 13 mph 1015.1mb 65f 64f
2:50pm 5ft 14s 8s 9 11 mph 1015.6mb 65f 64f
1:50pm 4.5ft 14s 8s 7 9 mph 1015.8mb 65f 64f
12:50pm 4.5ft 13s 8s 7 9 mph 1016.1mb 65f 64f
11:50am 5ft 8s 8s 2 7 mph 1016.3mb 65f 63f
10:50am 4.5ft 14s 8s  -  mph 1016.5mb 64f 63f
9:50am 4.5ft 14s 8s  -  mph 1016.4mb 64f 62f
8:50am 5ft 8s 8s 2 4 mph 1016.1mb 63f 62f
7:50am 5ft 8s 8s  -  mph 1015.8mb 63f 62f
6:50am 5ft 8s 8s  -  mph 1015.6mb 64f 61f
5:50am 5ft 8s 8s  -  mph 1015mb 64f 61f
4:50am 5ft 13s 8s  -  mph 1014.7mb 64f 62f
3:50am 5ft 8s 8s  -  2 mph 1014.5mb 65f 62f